Time;durP1;ratioP1;P1;durP2;ratioP2;P2;SDS_P1;SDS_P2;PMS_P1;PMS_P2;Temp;Humidity;BMP_temperature;BMP_pressure;BME280_temperature;BME280_humidity;BME280_pressure;Samples;Min_cycle;Max_cycle;Signal;HPM_P1;HPM_P2
2021/07/11 00:02:04;;;;;;;8.95;7.00;;;;;;;17.79;56.59;98569.34;4939404;29;20020;-73
2021/07/11 00:04:30;;;;;;;10.20;7.38;;;;;;;17.80;56.72;98576.53;4921922;29;20036;-74
2021/07/11 00:06:55;;;;;;;10.77;6.82;;;;;;;17.79;56.49;98576.88;4942154;29;20027;-73
2021/07/11 00:09:20;;;;;;;11.63;6.82;;;;;;;17.77;57.03;98568.88;4947058;29;20042;-73
2021/07/11 00:11:46;;;;;;;7.32;5.78;;;;;;;17.77;56.71;98568.88;4957099;28;20039;-73
2021/07/11 00:14:11;;;;;;;8.35;6.30;;;;;;;17.77;56.91;98566.09;4946661;29;20054;-73
2021/07/11 00:16:37;;;;;;;9.10;6.40;;;;;;;17.79;57.23;98569.34;4942739;29;20139;-73
2021/07/11 00:19:03;;;;;;;7.70;6.15;;;;;;;17.77;57.18;98573.63;4941492;29;20042;-74
2021/07/11 00:21:28;;;;;;;7.88;6.32;;;;;;;17.73;57.08;98569.91;4945003;29;20042;-72
2021/07/11 00:23:54;;;;;;;8.70;6.13;;;;;;;17.71;57.28;98565.53;4942771;29;20031;-73
2021/07/11 00:26:19;;;;;;;7.88;6.22;;;;;;;17.71;57.03;98559.97;4945219;29;20075;-73
2021/07/11 00:28:45;;;;;;;9.10;6.05;;;;;;;17.73;57.16;98558.81;4946037;29;20469;-73
2021/07/11 00:31:11;;;;;;;7.97;5.75;;;;;;;17.70;57.29;98555.59;4933979;29;20032;-74
2021/07/11 00:33:36;;;;;;;9.20;6.07;;;;;;;17.71;57.16;98561.97;4929766;29;20040;-74
2021/07/11 00:36:02;;;;;;;8.32;5.70;;;;;;;17.67;57.50;98558.25;4931959;29;20028;-72
2021/07/11 00:38:27;;;;;;;7.68;5.75;;;;;;;17.66;57.08;98562.16;4916716;29;20388;-74
2021/07/11 00:40:53;;;;;;;9.38;5.53;;;;;;;17.64;57.50;98561.69;4928536;29;20131;-72
2021/07/11 00:43:18;;;;;;;6.82;5.35;;;;;;;17.63;57.47;98563.63;4931489;29;20183;-73
2021/07/11 00:45:44;;;;;;;7.43;5.65;;;;;;;17.61;57.40;98556.81;4925912;29;20131;-73
2021/07/11 00:48:09;;;;;;;6.75;5.32;;;;;;;17.65;57.43;98557.78;4936186;29;20040;-73
2021/07/11 00:50:35;;;;;;;8.25;6.18;;;;;;;17.65;57.82;98557.78;4937840;29;20040;-73
2021/07/11 00:53:00;;;;;;;8.15;6.68;;;;;;;17.67;57.55;98558.25;4937146;29;20044;-73
2021/07/11 00:55:27;;;;;;;10.07;6.88;;;;;;;17.67;57.55;98549.91;4936941;29;20035;-73
2021/07/11 00:57:53;;;;;;;8.13;6.32;;;;;;;17.66;57.60;98553.84;4937358;29;20020;-73
2021/07/11 01:00:19;;;;;;;10.13;7.00;;;;;;;17.63;57.54;98549.78;4937110;29;20032;-73
2021/07/11 01:03:05;;;;;;;10.07;7.63;;;;;;;17.61;57.69;98554.06;4935364;28;20436;-73
2021/07/11 01:05:31;;;;;;;11.18;7.55;;;;;;;17.55;57.37;98551.50;4937493;28;20063;-73
2021/07/11 01:07:56;;;;;;;11.07;7.60;;;;;;;17.56;57.79;98558.66;4937613;29;20024;-73
2021/07/11 01:10:29;;;;;;;10.50;7.68;;;;;;;17.53;57.66;98550.19;4938135;28;20038;-73
2021/07/11 01:12:55;;;;;;;11.43;7.50;;;;;;;17.48;57.58;98558.75;4924241;29;20031;-73
2021/07/11 01:15:22;;;;;;;9.50;6.80;;;;;;;17.44;57.51;98549.47;4937159;29;20042;-73
2021/07/11 01:17:50;;;;;;;8.63;6.18;;;;;;;17.40;57.71;98549.34;4937493;29;20038;-73
2021/07/11 01:20:40;;;;;;;6.63;5.05;;;;;;;17.40;57.55;98552.09;4934671;29;20091;-73
2021/07/11 01:23:08;;;;;;;7.47;5.07;;;;;;;17.40;57.82;98547.38;4938053;28;20043;-73
2021/07/11 01:25:42;;;;;;;6.85;5.03;;;;;;;17.40;58.20;98547.38;4936683;29;20051;-73
2021/07/11 01:28:12;;;;;;;6.72;4.80;;;;;;;17.40;57.92;98543.78;4936858;29;20043;-74
2021/07/11 01:30:39;;;;;;;6.35;5.00;;;;;;;17.40;57.86;98549.34;4931670;29;20142;-73
2021/07/11 01:33:06;;;;;;;6.55;5.05;;;;;;;17.37;58.27;98545.28;4940005;29;20039;-73
2021/07/11 01:35:33;;;;;;;6.00;5.13;;;;;;;17.38;58.14;98540.53;4935475;29;20032;-73
2021/07/11 01:37:59;;;;;;;7.25;4.88;;;;;;;17.40;58.27;98546.56;4918352;29;20027;-73
2021/07/11 01:40:28;;;;;;;5.35;4.80;;;;;;;17.40;58.25;98544.63;4953876;28;20399;-75
2021/07/11 01:42:54;;;;;;;7.23;4.70;;;;;;;17.41;58.42;98546.25;4954739;28;20031;-73
2021/07/11 01:45:19;;;;;;;6.40;4.65;;;;;;;17.44;58.78;98544.72;4935809;29;20051;-74
2021/07/11 01:47:45;;;;;;;5.93;4.65;;;;;;;17.45;58.50;98542.78;4935832;29;20046;-73
2021/07/11 01:50:12;;;;;;;6.82;5.03;;;;;;;17.46;58.92;98547.97;4934847;29;20050;-73
2021/07/11 01:52:39;;;;;;;5.85;5.22;;;;;;;17.46;58.79;98547.97;4939087;28;20073;-74
2021/07/11 01:55:07;;;;;;;6.68;5.25;;;;;;;17.48;58.57;98550.44;4925214;29;20035;-73
2021/07/11 01:57:34;;;;;;;6.90;5.15;;;;;;;17.47;58.81;98546.81;4936070;29;20046;-73
2021/07/11 02:00:00;;;;;;;6.28;5.50;;;;;;;17.51;58.67;98550.53;4935609;28;20032;-73
2021/07/11 02:02:25;;;;;;;8.25;6.20;;;;;;;17.52;58.57;98549.41;4935133;29;20507;-74
2021/07/11 02:04:51;;;;;;;9.23;6.15;;;;;;;17.54;58.52;98552.63;4941000;28;20027;-74
2021/07/11 02:07:17;;;;;;;9.55;6.43;;;;;;;17.55;58.75;98551.50;4954956;28;20035;-73
2021/07/11 02:09:42;;;;;;;8.80;6.05;;;;;;;17.55;58.83;98556.22;4950170;28;20559;-73
2021/07/11 02:12:09;;;;;;;7.50;6.05;;;;;;;17.55;58.64;98559.81;4954296;28;20110;-73
2021/07/11 02:14:38;;;;;;;12.15;8.10;;;;;;;17.55;58.94;98562.59;4941156;28;20118;-73
2021/07/11 02:17:10;;;;;;;10.50;6.78;;;;;;;17.52;58.71;98557.72;4934666;29;20028;-75
2021/07/11 02:19:40;;;;;;;8.25;6.07;;;;;;;17.47;58.94;98563.47;4934646;28;20024;-74
2021/07/11 02:22:13;;;;;;;8.75;6.30;;;;;;;17.44;59.22;98564.13;4929215;29;20480;-74
2021/07/11 02:24:41;;;;;;;9.32;6.85;;;;;;;17.40;58.62;98568.75;4944768;28;20047;-73
2021/07/11 02:27:08;;;;;;;9.25;6.18;;;;;;;17.37;58.73;98561.94;4935148;29;20079;-72
2021/07/11 02:29:39;;;;;;;7.95;6.20;;;;;;;17.39;58.92;98569.88;4934666;29;20369;-73
2021/07/11 02:32:08;;;;;;;7.75;5.45;;;;;;;17.35;59.00;98563.41;4934661;29;20039;-74
2021/07/11 02:34:34;;;;;;;7.20;5.82;;;;;;;17.37;59.03;98567.47;4936950;28;20034;-74
2021/07/11 02:37:01;;;;;;;8.32;6.57;;;;;;;17.37;59.51;98569.41;4936271;28;20038;-74
2021/07/11 02:39:28;;;;;;;9.57;6.70;;;;;;;17.37;59.14;98564.69;4939838;28;20028;-73
2021/07/11 02:41:57;;;;;;;8.52;6.57;;;;;;;17.40;59.24;98565.97;4935443;29;20040;-73
2021/07/11 02:44:23;;;;;;;7.53;6.50;;;;;;;17.41;59.47;98559.28;4925117;29;20091;-74
2021/07/11 02:46:56;;;;;;;7.55;6.35;;;;;;;17.42;59.62;98566.44;4933054;29;20051;-74
2021/07/11 02:49:24;;;;;;;8.65;6.20;;;;;;;17.43;59.26;98564.50;4936391;28;20063;-74
2021/07/11 02:51:52;;;;;;;9.75;6.47;;;;;;;17.45;59.70;98567.75;4934188;29;20123;-74
2021/07/11 02:54:22;;;;;;;8.88;6.53;;;;;;;17.45;59.29;98570.50;4938944;28;20039;-74
2021/07/11 02:56:51;;;;;;;8.23;6.60;;;;;;;17.47;59.34;98570.97;4934395;29;20024;-74
2021/07/11 02:59:20;;;;;;;8.32;6.43;;;;;;;17.47;59.61;98570.97;4934288;29;20552;-74
2021/07/11 03:01:46;;;;;;;8.18;6.60;;;;;;;17.47;59.63;98570.97;4933218;28;20114;-74
2021/07/11 03:04:14;;;;;;;10.65;6.65;;;;;;;17.47;59.69;98570.97;4933670;29;20098;-74
2021/07/11 03:06:39;;;;;;;9.27;6.78;;;;;;;17.48;59.72;98576.19;4936072;28;20464;-74
2021/07/11 03:09:06;;;;;;;8.45;7.13;;;;;;;17.49;59.73;98577.81;4936719;28;20102;-74
2021/07/11 03:11:35;;;;;;;12.10;7.20;;;;;;;17.48;59.82;98567.06;4930826;29;20067;-74
2021/07/11 03:14:01;;;;;;;10.93;8.00;;;;;;;17.47;59.61;98571.78;4934024;28;20043;-74
2021/07/11 03:16:27;;;;;;;13.93;8.30;;;;;;;17.47;59.98;98582.06;4934438;28;20028;-74
2021/07/11 03:18:56;;;;;;;13.60;8.85;;;;;;;17.48;60.13;98578.94;4934276;29;20035;-73
2021/07/11 03:21:23;;;;;;;12.48;8.23;;;;;;;17.50;59.91;98582.19;4936036;28;20035;-73
2021/07/11 03:23:51;;;;;;;16.45;8.70;;;;;;;17.51;59.97;98581.03;4933771;28;20067;-73
2021/07/11 03:26:18;;;;;;;14.70;9.27;;;;;;;17.51;59.74;98572.72;4931926;29;20046;-74
2021/07/11 03:28:50;;;;;;;14.48;8.68;;;;;;;17.52;60.00;98579.91;4933454;29;20357;-74
2021/07/11 03:31:18;;;;;;;14.55;8.35;;;;;;;17.54;60.00;98579.53;4932512;29;20476;-74
2021/07/11 03:33:49;;;;;;;14.73;8.80;;;;;;;17.56;60.09;98582.78;4923693;29;20444;-73
2021/07/11 03:36:16;;;;;;;13.43;9.02;;;;;;;17.58;60.43;98582.47;4931214;29;20119;-74
2021/07/11 03:38:46;;;;;;;17.08;9.68;;;;;;;17.56;60.46;98580.84;4927968;29;20063;-72
2021/07/11 03:41:17;;;;;;;18.48;10.27;;;;;;;17.58;60.54;98577.72;4932967;28;20488;-73
2021/07/11 03:43:49;;;;;;;16.35;10.32;;;;;;;17.61;60.73;98581.78;4931501;29;20036;-73
2021/07/11 03:46:17;;;;;;;14.80;9.57;;;;;;;17.62;60.42;98586.19;4933651;29;20135;-73
2021/07/11 03:48:47;;;;;;;14.60;10.75;;;;;;;17.64;60.76;98592.19;4933961;29;20511;-73
2021/07/11 03:51:15;;;;;;;17.27;10.98;;;;;;;17.66;60.62;98578.81;4936044;28;20020;-72
2021/07/11 03:53:42;;;;;;;20.85;12.30;;;;;;;17.67;60.73;98581.22;4931535;29;20027;-73
2021/07/11 03:56:08;;;;;;;16.17;11.48;;;;;;;17.67;60.65;98580.44;4920776;29;20126;-73
2021/07/11 03:58:40;;;;;;;19.00;12.40;;;;;;;17.69;60.86;98580.91;4933236;29;20032;-73
2021/07/11 04:01:06;;;;;;;19.20;11.80;;;;;;;17.71;60.94;98587.72;4936782;28;20460;-73
2021/07/11 04:03:36;;;;;;;17.48;11.20;;;;;;;17.71;60.99;98578.59;4934205;29;20099;-73
2021/07/11 04:06:05;;;;;;;14.60;10.65;;;;;;;17.70;61.21;98576.97;4934971;28;20035;-74
2021/07/11 04:08:34;;;;;;;15.95;11.40;;;;;;;17.70;60.99;98580.53;4935253;28;20035;-74
2021/07/11 04:11:00;;;;;;;16.33;9.80;;;;;;;17.69;61.01;98573.38;4934505;29;20055;-73
2021/07/11 04:13:26;;;;;;;12.88;9.60;;;;;;;17.69;61.41;98575.34;4930837;29;20082;-73
2021/07/11 04:15:56;;;;;;;11.93;9.25;;;;;;;17.69;61.27;98575.34;4933324;29;20047;-73
2021/07/11 04:18:24;;;;;;;10.70;8.98;;;;;;;17.71;62.05;98567.50;4933750;29;20492;-74
2021/07/11 04:20:54;;;;;;;12.80;9.30;;;;;;;17.75;61.46;98578.72;4936061;29;20032;-74
2021/07/11 04:23:23;;;;;;;14.93;9.05;;;;;;;17.75;61.69;98573.97;4935752;28;20091;-74
2021/07/11 04:25:50;;;;;;;12.32;9.27;;;;;;;17.76;61.92;98574.78;4940249;28;20539;-74
2021/07/11 04:28:16;;;;;;;9.93;8.88;;;;;;;17.77;61.85;98570.88;4934841;29;20059;-73
2021/07/11 04:30:41;;;;;;;14.15;9.23;;;;;;;17.80;61.99;98565.44;4934816;29;20028;-74
2021/07/11 04:33:11;;;;;;;12.38;9.55;;;;;;;17.84;61.84;98574.69;4932087;29;20067;-74
2021/07/11 04:35:37;;;;;;;14.55;9.98;;;;;;;17.86;61.88;98569.63;4933314;29;20023;-74
2021/07/11 04:38:02;;;;;;;11.40;9.07;;;;;;;17.88;62.07;98560.13;4937684;28;20027;-73
2021/07/11 04:40:28;;;;;;;12.13;9.48;;;;;;;17.90;62.48;98557.84;4926158;29;20126;-74
2021/07/11 04:42:53;;;;;;;12.38;9.35;;;;;;;17.92;62.36;98552.75;4938650;28;20039;-74
2021/07/11 04:45:19;;;;;;;13.05;9.55;;;;;;;17.94;62.54;98556.78;4936868;29;20075;-74
2021/07/11 04:47:44;;;;;;;11.25;8.90;;;;;;;17.97;62.42;98556.09;4934617;29;20034;-74
2021/07/11 04:50:10;;;;;;;12.90;9.73;;;;;;;18.01;62.65;98545.19;4934135;28;20020;-74
2021/07/11 04:52:40;;;;;;;11.73;9.60;;;;;;;18.06;62.98;98544.97;4935766;28;20094;-74
2021/07/11 04:55:06;;;;;;;;;;;;;;;18.10;62.39;98545.91;4935712;29;20028;-74
2021/07/11 04:57:32;;;;;;;10.73;9.13;;;;;;;18.11;62.86;98546.69;4937253;29;19921;-73
2021/07/11 04:59:57;;;;;;;12.25;9.60;;;;;;;18.12;62.85;98551.91;4936705;29;20110;-74
2021/07/11 05:02:22;;;;;;;9.65;8.20;;;;;;;18.15;63.08;98540.09;4931360;28;20484;-73
2021/07/11 05:04:48;;;;;;;11.50;8.70;;;;;;;18.20;63.05;98544.63;4927324;29;20031;-73
2021/07/11 05:07:13;;;;;;;12.15;9.07;;;;;;;18.26;62.83;98550.75;4936356;29;20031;-74
2021/07/11 05:09:38;;;;;;;13.82;8.75;;;;;;;18.32;62.93;98549.38;4936385;29;20020;-74
2021/07/11 05:12:04;;;;;;;11.30;8.27;;;;;;;18.38;63.08;98547.16;4936642;28;20084;-73
2021/07/11 05:14:29;;;;;;;11.45;8.63;;;;;;;18.40;63.02;98551.25;4937683;28;20445;-74
2021/07/11 05:16:55;;;;;;;11.02;8.27;;;;;;;18.42;63.27;98542.53;4936521;29;20040;-74
2021/07/11 05:19:20;;;;;;;11.18;8.30;;;;;;;18.44;62.76;98541.06;4938803;28;20046;-74
2021/07/11 05:21:45;;;;;;;11.98;8.80;;;;;;;18.52;63.38;98549.63;4923867;29;20020;-74
2021/07/11 05:24:11;;;;;;;9.65;7.63;;;;;;;18.57;63.31;98546.59;4939403;28;20094;-74
2021/07/11 05:26:36;;;;;;;10.82;8.70;;;;;;;18.59;63.28;98541.50;4935270;28;20020;-74
2021/07/11 05:29:02;;;;;;;9.25;8.07;;;;;;;18.64;63.29;98541.28;4936293;29;20015;-74
2021/07/11 05:31:27;;;;;;;11.35;9.07;;;;;;;18.65;63.35;98539.31;4936120;29;20024;-74
2021/07/11 05:33:54;;;;;;;10.60;8.82;;;;;;;18.72;63.54;98536.78;4938113;28;20062;-74
2021/07/11 05:36:19;;;;;;;9.13;7.78;;;;;;;18.79;63.75;98538.94;4935405;29;20044;-74
2021/07/11 05:38:45;;;;;;;14.07;8.55;;;;;;;18.85;63.59;98532.00;4934178;29;20036;-74
2021/07/11 05:41:10;;;;;;;10.07;7.82;;;;;;;18.91;63.58;98522.28;4937283;28;20037;-74
2021/07/11 05:43:36;;;;;;;9.65;8.20;;;;;;;19.00;63.64;98522.94;4938033;28;20122;-74
2021/07/11 05:46:02;;;;;;;11.02;8.05;;;;;;;19.12;63.68;98532.44;4935602;28;20075;-73
2021/07/11 05:48:27;;;;;;;10.68;8.00;;;;;;;19.19;63.46;98536.22;4934011;28;20417;-73
2021/07/11 05:50:53;;;;;;;11.15;8.43;;;;;;;19.24;63.37;98535.19;4934701;29;20035;-73
2021/07/11 05:53:19;;;;;;;10.82;8.40;;;;;;;19.31;63.49;98534.56;4937025;28;20031;-74
2021/07/11 05:55:45;;;;;;;10.02;7.68;;;;;;;19.36;63.47;98539.88;4938831;28;20027;-73
2021/07/11 05:58:10;;;;;;;9.65;7.85;;;;;;;19.40;63.32;98539.97;4935134;29;20027;-74
2021/07/11 06:00:36;;;;;;;8.65;7.70;;;;;;;19.47;63.15;98535.44;4931686;29;20083;-74
2021/07/11 06:03:02;;;;;;;8.43;7.57;;;;;;;19.52;62.96;98534.38;4936209;29;20059;-74
2021/07/11 06:05:27;;;;;;;10.73;7.57;;;;;;;19.58;63.18;98538.50;4936850;29;20027;-75
2021/07/11 06:07:53;;;;;;;8.95;7.35;;;;;;;19.62;63.33;98522.75;4932635;29;20050;-75
2021/07/11 06:10:18;;;;;;;9.45;7.60;;;;;;;19.70;63.04;98532.06;4935539;29;20122;-74
2021/07/11 06:12:44;;;;;;;8.35;7.50;;;;;;;19.78;63.13;98533.06;4936194;29;20034;-74
2021/07/11 06:15:10;;;;;;;9.50;7.45;;;;;;;19.86;63.21;98529.31;4932556;29;20059;-74
2021/07/11 06:17:35;;;;;;;10.73;8.65;;;;;;;19.92;62.89;98532.69;4935220;29;20032;-74
2021/07/11 06:20:08;;;;;;;10.18;8.23;;;;;;;20.03;63.01;98532.97;4932969;29;20063;-73
2021/07/11 06:22:34;;;;;;;11.35;9.23;;;;;;;20.11;63.16;98529.22;4936157;29;20123;-74
2021/07/11 06:25:06;;;;;;;10.80;8.23;;;;;;;20.19;63.11;98528.19;4941663;29;20107;-74
2021/07/11 06:27:34;;;;;;;9.30;8.32;;;;;;;20.28;63.12;98524.44;4940684;29;20512;-74
2021/07/11 06:29:59;;;;;;;9.40;8.40;;;;;;;20.36;62.93;98527.06;4936628;29;20024;-74
2021/07/11 06:32:24;;;;;;;8.60;7.57;;;;;;;20.46;62.90;98525.69;4936140;29;20107;-74
2021/07/11 06:34:50;;;;;;;9.50;7.97;;;;;;;20.51;62.54;98519.03;4919457;29;20034;-74
2021/07/11 06:37:15;;;;;;;10.75;7.88;;;;;;;20.56;62.44;98529.09;4918891;29;20024;-74
2021/07/11 06:39:40;;;;;;;11.82;8.50;;;;;;;20.62;62.29;98524.84;4936429;29;20060;-74
2021/07/11 06:42:06;;;;;;;8.80;7.90;;;;;;;20.67;62.41;98528.19;4936826;29;20055;-74
2021/07/11 06:44:32;;;;;;;10.13;8.18;;;;;;;20.75;62.42;98529.16;4945689;29;20034;-74
2021/07/11 06:46:57;;;;;;;11.35;8.02;;;;;;;20.80;62.39;98526.09;4947923;29;20157;-73
2021/07/11 06:49:22;;;;;;;14.05;8.50;;;;;;;20.88;62.31;98526.28;4918706;29;20074;-73
2021/07/11 06:51:48;;;;;;;10.02;8.07;;;;;;;20.95;62.48;98518.88;4939935;29;20035;-74
2021/07/11 06:54:13;;;;;;;8.95;7.82;;;;;;;21.03;62.36;98519.03;4954571;28;20396;-74
2021/07/11 06:56:39;;;;;;;11.77;9.52;;;;;;;21.14;62.51;98524.81;4946588;29;20028;-75
2021/07/11 06:59:04;;;;;;;9.63;8.63;;;;;;;21.21;62.31;98528.56;4935542;29;20107;-74
2021/07/11 07:01:29;;;;;;;11.23;9.38;;;;;;;21.27;62.16;98524.31;4935162;29;20027;-74
2021/07/11 07:03:55;;;;;;;11.60;8.70;;;;;;;21.37;61.89;98527.69;4938384;29;20042;-75
2021/07/11 07:06:20;;;;;;;10.20;8.63;;;;;;;21.46;62.05;98521.88;4937595;28;20036;-74
2021/07/11 07:08:45;;;;;;;12.27;9.88;;;;;;;21.56;62.16;98519.34;4937989;29;20029;-75
2021/07/11 07:11:11;;;;;;;10.57;9.10;;;;;;;21.66;61.91;98523.53;4935055;29;20036;-75
2021/07/11 07:13:36;;;;;;;10.18;8.77;;;;;;;21.77;61.63;98517.34;4937751;29;20146;-74
2021/07/11 07:16:01;;;;;;;8.90;8.00;;;;;;;21.84;61.43;98523.88;4939049;29;20091;-75
2021/07/11 07:18:27;;;;;;;9.02;7.53;;;;;;;21.94;61.57;98524.44;4914664;29;20031;-74
2021/07/11 07:20:52;;;;;;;11.73;8.65;;;;;;;22.01;61.20;98521.75;4918187;29;20060;-74
2021/07/11 07:23:17;;;;;;;9.95;8.30;;;;;;;22.08;61.22;98523.88;4921495;29;20031;-74
2021/07/11 07:25:43;;;;;;;10.90;8.43;;;;;;;22.15;61.15;98518.44;4942859;29;20114;-75
2021/07/11 07:28:10;;;;;;;9.95;8.10;;;;;;;22.21;61.03;98514.13;4935380;29;20087;-74
2021/07/11 07:30:36;;;;;;;8.95;8.13;;;;;;;22.29;60.90;98501.09;4943929;29;20035;-75
2021/07/11 07:33:02;;;;;;;11.07;8.75;;;;;;;22.34;60.76;98506.38;4944334;29;20399;-74
2021/07/11 07:35:27;;;;;;;9.48;7.75;;;;;;;22.39;60.27;98500.47;4935648;29;20034;-75
2021/07/11 07:37:53;;;;;;;10.18;8.80;;;;;;;22.38;60.15;98490.47;4918229;29;20039;-75
2021/07/11 07:40:20;;;;;;;10.10;8.13;;;;;;;22.42;60.17;98496.09;4936340;29;20028;-72
2021/07/11 07:42:47;;;;;;;9.77;8.20;;;;;;;22.49;60.09;98492.63;4935031;29;20062;-74
2021/07/11 07:45:12;;;;;;;9.32;8.18;;;;;;;22.54;60.04;98486.72;4937665;28;20046;-73
2021/07/11 07:47:38;;;;;;;8.82;7.93;;;;;;;22.62;60.12;98488.44;4944669;28;20023;-74
2021/07/11 07:50:05;;;;;;;9.68;8.60;;;;;;;22.68;59.99;98495.34;4943694;29;20027;-73
2021/07/11 07:52:31;;;;;;;10.93;8.40;;;;;;;22.77;59.99;98505.44;4943241;28;20527;-73
2021/07/11 07:54:56;;;;;;;9.15;8.25;;;;;;;22.84;59.85;98502.72;4938480;29;20035;-74
2021/07/11 07:57:22;;;;;;;9.85;8.40;;;;;;;22.91;59.92;98505.63;4940542;29;20474;-73
2021/07/11 07:59:47;;;;;;;10.32;7.65;;;;;;;22.97;59.66;98511.72;4934960;29;20090;-74
2021/07/11 08:02:12;;;;;;;9.00;8.10;;;;;;;23.00;59.47;98513.75;4933693;29;20062;-73
2021/07/11 08:04:38;;;;;;;9.32;8.27;;;;;;;23.05;59.36;98510.59;4935029;29;20044;-74
2021/07/11 08:07:03;;;;;;;12.40;8.25;;;;;;;23.12;59.18;98518.31;4935208;29;20030;-74
2021/07/11 08:09:28;;;;;;;8.82;8.02;;;;;;;23.16;58.93;98519.94;4934867;29;20024;-73
2021/07/11 08:11:54;;;;;;;9.30;8.40;;;;;;;23.24;59.28;98517.28;4934668;29;20399;-74
2021/07/11 08:14:19;;;;;;;10.98;8.85;;;;;;;23.33;59.20;98523.41;4943256;29;20024;-74
2021/07/11 08:16:44;;;;;;;10.48;8.25;;;;;;;23.37;58.90;98529.84;4958305;29;20078;-73
2021/07/11 08:19:10;;;;;;;8.80;7.90;;;;;;;23.43;58.86;98527.50;4943946;28;20015;-72
2021/07/11 08:21:35;;;;;;;12.57;8.63;;;;;;;23.51;59.14;98523.59;4942905;29;20376;-73
2021/07/11 08:24:02;;;;;;;8.93;8.02;;;;;;;23.60;59.06;98526.91;4944746;29;20070;-72
2021/07/11 08:26:28;;;;;;;10.15;9.15;;;;;;;23.67;58.88;98523.38;4944484;29;20047;-74
2021/07/11 08:28:53;;;;;;;10.65;8.60;;;;;;;23.77;59.00;98531.09;4939818;29;20464;-74
2021/07/11 08:31:19;;;;;;;10.88;8.32;;;;;;;23.86;58.89;98529.97;4938963;29;20449;-74
2021/07/11 08:33:45;;;;;;;9.98;8.98;;;;;;;23.93;58.78;98527.25;4947700;29;20059;-74
2021/07/11 08:36:10;;;;;;;9.23;8.32;;;;;;;24.04;58.78;98525.38;4948098;29;20465;-74
2021/07/11 08:38:35;;;;;;;11.38;9.60;;;;;;;24.14;58.50;98523.06;4942355;29;20039;-75
2021/07/11 08:41:01;;;;;;;11.65;8.60;;;;;;;24.23;58.62;98524.34;4941725;29;20167;-76
2021/07/11 08:43:28;;;;;;;9.00;8.10;;;;;;;24.34;58.45;98523.66;4944099;29;20027;-74
2021/07/11 08:45:54;;;;;;;9.65;8.13;;;;;;;24.37;57.37;98520.88;4938704;29;20074;-74
2021/07/11 08:48:19;;;;;;;10.05;8.75;;;;;;;24.39;57.71;98514.88;4938856;29;20373;-75
2021/07/11 08:50:44;;;;;;;22.83;13.65;;;;;;;24.48;57.83;98518.13;4938963;29;20024;-75
2021/07/11 08:53:13;;;;;;;11.18;9.30;;;;;;;24.59;57.36;98518.25;4932667;29;20106;-75
2021/07/11 08:55:39;;;;;;;11.50;9.70;;;;;;;24.70;57.43;98517.50;4940966;29;20031;-77
2021/07/11 08:58:04;;;;;;;12.65;9.32;;;;;;;24.79;57.19;98503.97;4926464;29;20031;-76
2021/07/11 09:00:35;;;;;;;14.35;10.75;;;;;;;24.89;57.09;98508.03;4938613;29;20035;-77
2021/07/11 09:03:02;;;;;;;13.20;9.82;;;;;;;25.00;56.77;98505.28;4938482;29;20031;-76
2021/07/11 09:05:28;;;;;;;9.73;8.50;;;;;;;25.06;56.44;98500.94;4939104;28;20032;-76
2021/07/11 09:08:19;;;;;;;8.65;7.75;;;;;;;25.09;56.04;98486.09;4939629;28;20034;-76
2021/07/11 09:10:50;;;;;;;8.98;7.57;;;;;;;25.09;55.86;98486.91;4937267;29;20027;-76
2021/07/11 09:13:18;;;;;;;10.70;8.32;;;;;;;25.09;56.20;98484.09;4949013;29;20037;-75
2021/07/11 09:15:47;;;;;;;9.57;8.55;;;;;;;25.13;56.10;98481.28;4955909;28;20396;-76
2021/07/11 09:18:14;;;;;;;10.05;8.57;;;;;;;25.20;56.13;98480.53;4919352;29;20409;-76
2021/07/11 09:21:00;;;;;;;9.50;8.52;;;;;;;25.27;56.34;98480.53;4919269;29;20027;-76
2021/07/11 09:23:26;;;;;;;9.30;8.30;;;;;;;25.32;55.76;98473.75;4936554;29;20484;-76
2021/07/11 09:26:06;;;;;;;9.13;8.27;;;;;;;25.36;55.68;98480.97;4947576;28;20030;-76
2021/07/11 09:28:34;;;;;;;9.07;8.23;;;;;;;25.40;55.37;98481.81;4943166;29;20019;-76
2021/07/11 09:31:10;;;;;;;11.60;9.02;;;;;;;25.42;54.74;98479.41;4947130;29;20051;-75
2021/07/11 09:33:42;;;;;;;9.75;8.07;;;;;;;25.49;55.56;98480.66;4946944;28;20468;-76
2021/07/11 09:36:15;;;;;;;12.10;10.25;;;;;;;25.54;55.28;98480.28;4921492;29;20046;-74
2021/07/11 09:38:45;;;;;;;10.20;9.23;;;;;;;25.60;55.08;98489.94;4906055;29;20083;-74
2021/07/11 09:41:22;;;;;;;8.48;7.70;;;;;;;25.70;55.62;98493.94;4923191;29;20079;-74
2021/07/11 09:43:49;;;;;;;9.75;8.10;;;;;;;25.81;55.28;98506.03;4921158;29;20028;-74
2021/07/11 09:46:16;;;;;;;8.50;7.68;;;;;;;25.89;54.86;98498.41;4917618;28;20044;-74
2021/07/11 09:48:42;;;;;;;8.30;7.60;;;;;;;25.94;55.21;98495.19;4913006;29;20070;-74
2021/07/11 09:51:36;;;;;;;9.07;7.85;;;;;;;26.03;54.68;98503.22;4910786;29;20076;-74
2021/07/11 09:54:10;;;;;;;8.77;7.97;;;;;;;26.08;54.49;98502.03;4898712;29;20963;-74
2021/07/11 09:56:36;;;;;;;10.15;9.00;;;;;;;26.10;54.53;98514.47;4910889;29;20032;-73
2021/07/11 09:59:04;;;;;;;9.45;8.65;;;;;;;26.11;54.17;98526.50;4902648;29;20036;-75
2021/07/11 10:01:31;;;;;;;12.23;11.02;;;;;;;26.13;54.19;98516.53;4902299;29;20121;-74
2021/07/11 10:03:58;;;;;;;11.70;9.50;;;;;;;26.18;54.36;98523.75;4905461;29;20028;-74
2021/07/11 10:06:25;;;;;;;11.18;8.55;;;;;;;26.17;54.01;98533.38;4910006;29;20517;-74
2021/07/11 10:08:50;;;;;;;9.88;8.85;;;;;;;26.18;54.11;98529.34;4902821;29;20099;-74
2021/07/11 10:11:15;;;;;;;12.27;9.73;;;;;;;26.21;54.14;98533.41;4896254;29;21044;-74
2021/07/11 10:13:41;;;;;;;10.02;8.95;;;;;;;26.22;54.02;98538.59;4909930;29;20445;-74
2021/07/11 10:16:11;;;;;;;11.32;8.73;;;;;;;26.25;54.01;98542.63;4927978;29;20035;-74
2021/07/11 10:18:39;;;;;;;12.73;9.38;;;;;;;26.28;53.79;98544.66;4913449;29;20135;-74
2021/07/11 10:21:05;;;;;;;12.15;9.85;;;;;;;26.29;53.93;98551.84;4901887;29;20082;-74
2021/07/11 10:23:34;;;;;;;10.40;8.75;;;;;;;26.29;53.59;98552.66;4903065;29;20425;-74
2021/07/11 10:26:01;;;;;;;10.50;8.55;;;;;;;26.32;53.60;98551.06;4909073;28;20107;-74
2021/07/11 10:28:30;;;;;;;11.57;9.35;;;;;;;26.30;53.83;98550.66;4910217;29;20051;-74
2021/07/11 10:30:55;;;;;;;9.90;8.93;;;;;;;26.28;53.62;98548.25;4910179;29;20060;-74
2021/07/11 10:33:23;;;;;;;9.52;8.50;;;;;;;26.29;53.84;98543.41;4910684;29;20071;-74
2021/07/11 10:36:04;;;;;;;9.45;8.25;;;;;;;26.34;53.70;98553.47;4910703;29;20067;-74
2021/07/11 10:38:34;;;;;;;12.43;9.20;;;;;;;26.31;53.79;98560.69;4910519;29;20099;-74
2021/07/11 10:41:17;;;;;;;13.23;8.98;;;;;;;26.34;53.80;98561.91;4902014;29;20028;-74
2021/07/11 10:44:11;;;;;;;12.05;8.23;;;;;;;26.38;53.56;98546.63;4883434;29;20465;-73
2021/07/11 10:46:43;;;;;;;8.55;7.65;;;;;;;26.45;53.52;98552.28;4917903;29;20048;-74
2021/07/11 10:49:18;;;;;;;8.20;7.40;;;;;;;26.52;53.55;98550.66;4920504;29;20111;-75
2021/07/11 10:51:45;;;;;;;9.90;8.20;;;;;;;26.60;53.57;98549.47;4910387;29;20024;-76
2021/07/11 10:54:17;;;;;;;8.80;7.85;;;;;;;26.64;53.30;98544.63;4913400;29;20298;-75
2021/07/11 10:56:43;;;;;;;9.48;8.27;;;;;;;26.66;53.17;98541.41;4911268;29;20118;-75
2021/07/11 10:59:08;;;;;;;9.30;8.40;;;;;;;26.70;52.70;98531.75;4909206;29;20469;-75
2021/07/11 11:01:37;;;;;;;8.75;7.95;;;;;;;26.68;52.83;98545.44;4903184;29;20056;-75
2021/07/11 11:04:03;;;;;;;9.75;8.63;;;;;;;26.71;52.78;98546.63;4903883;29;20031;-75
2021/07/11 11:06:39;;;;;;;8.57;7.50;;;;;;;26.72;52.63;98539.81;4899462;29;20064;-74
2021/07/11 11:09:04;;;;;;;10.85;7.65;;;;;;;26.74;52.63;98552.25;4917967;29;20028;-74
2021/07/11 11:11:30;;;;;;;10.25;8.77;;;;;;;26.77;52.68;98553.47;4910510;29;20036;-73
2021/07/11 11:14:06;;;;;;;8.32;7.53;;;;;;;26.78;52.77;98563.50;4917772;28;20051;-74
2021/07/11 11:16:45;;;;;;;8.50;7.60;;;;;;;26.78;52.50;98569.13;4908835;29;20047;-76
2021/07/11 11:19:15;;;;;;;8.40;7.60;;;;;;;26.74;52.45;98569.13;4918715;29;20039;-72
2021/07/11 11:21:51;;;;;;;10.38;7.80;;;;;;;26.69;52.19;98568.75;4909021;29;20024;-73
2021/07/11 11:24:18;;;;;;;10.13;7.22;;;;;;;26.68;52.75;98565.13;4899702;29;20029;-74
2021/07/11 11:26:44;;;;;;;8.43;7.70;;;;;;;26.67;52.62;98576.78;4902032;29;20035;-74
2021/07/11 11:29:09;;;;;;;8.57;7.68;;;;;;;26.68;52.94;98575.56;4912796;29;20036;-75
2021/07/11 11:31:36;;;;;;;8.93;7.47;;;;;;;26.63;52.85;98579.59;4920966;29;20035;-74